sensor_id;sensor_type;location;lat;lon;timestamp;pressure;altitude;pressure_sealevel;temperature
72278;BMP280;61204;49.980;8.358;2022-07-23T00:00:42;100560.69;;;21.32
72278;BMP280;61204;49.980;8.358;2022-07-23T00:03:10;100572.59;;;21.35
72278;BMP280;61204;49.980;8.358;2022-07-23T00:05:36;100578.31;;;21.41
72278;BMP280;61204;49.980;8.358;2022-07-23T00:08:05;100572.91;;;21.47
72278;BMP280;61204;49.980;8.358;2022-07-23T00:10:32;100590.44;;;21.51
72278;BMP280;61204;49.980;8.358;2022-07-23T00:12:58;100592.72;;;21.61
72278;BMP280;61204;49.980;8.358;2022-07-23T00:15:24;100597.69;;;21.65
72278;BMP280;61204;49.980;8.358;2022-07-23T00:17:50;100604.66;;;21.64
72278;BMP280;61204;49.980;8.358;2022-07-23T00:20:18;100599.84;;;21.68
72278;BMP280;61204;49.980;8.358;2022-07-23T00:25:14;100598.94;;;21.58
72278;BMP280;61204;49.980;8.358;2022-07-23T00:27:40;100582.69;;;21.50
72278;BMP280;61204;49.980;8.358;2022-07-23T00:30:06;100575.06;;;21.50
72278;BMP280;61204;49.980;8.358;2022-07-23T00:32:35;100567.94;;;21.45
72278;BMP280;61204;49.980;8.358;2022-07-23T00:35:20;100561.56;;;21.41
72278;BMP280;61204;49.980;8.358;2022-07-23T00:37:47;100553.81;;;21.37
72278;BMP280;61204;49.980;8.358;2022-07-23T00:40:13;100554.56;;;21.40
72278;BMP280;61204;49.980;8.358;2022-07-23T00:42:40;100565.72;;;21.40
72278;BMP280;61204;49.980;8.358;2022-07-23T00:45:06;100573.44;;;21.41
72278;BMP280;61204;49.980;8.358;2022-07-23T00:47:33;100573.41;;;21.39
72278;BMP280;61204;49.980;8.358;2022-07-23T00:49:59;100583.88;;;21.39
72278;BMP280;61204;49.980;8.358;2022-07-23T00:52:25;100595.41;;;21.27
72278;BMP280;61204;49.980;8.358;2022-07-23T00:54:52;100597.28;;;21.18
72278;BMP280;61204;49.980;8.358;2022-07-23T00:57:17;100607.16;;;21.23
72278;BMP280;61204;49.980;8.358;2022-07-23T00:59:45;100613.22;;;21.16
72278;BMP280;61204;49.980;8.358;2022-07-23T01:02:11;100623.34;;;21.29
72278;BMP280;61204;49.980;8.358;2022-07-23T01:04:37;100621.88;;;21.26
72278;BMP280;61204;49.980;8.358;2022-07-23T01:07:02;100625.28;;;21.22
72278;BMP280;61204;49.980;8.358;2022-07-23T01:09:29;100615.38;;;21.17
72278;BMP280;61204;49.980;8.358;2022-07-23T01:11:56;100611.22;;;21.18
72278;BMP280;61204;49.980;8.358;2022-07-23T01:14:23;100614.13;;;21.22
72278;BMP280;61204;49.980;8.358;2022-07-23T01:16:49;100613.97;;;21.16
72278;BMP280;61204;49.980;8.358;2022-07-23T01:19:16;100614.91;;;20.99
72278;BMP280;61204;49.980;8.358;2022-07-23T01:21:46;100605.78;;;20.71
72278;BMP280;61204;49.980;8.358;2022-07-23T01:24:18;100604.44;;;20.48
72278;BMP280;61204;49.980;8.358;2022-07-23T01:26:45;100580.69;;;20.21
72278;BMP280;61204;49.980;8.358;2022-07-23T01:29:13;100566.50;;;20.11
72278;BMP280;61204;49.980;8.358;2022-07-23T01:31:40;100556.34;;;19.97
72278;BMP280;61204;49.980;8.358;2022-07-23T01:34:07;100548.81;;;20.00
72278;BMP280;61204;49.980;8.358;2022-07-23T01:36:33;100556.97;;;20.18
72278;BMP280;61204;49.980;8.358;2022-07-23T01:39:04;100569.00;;;20.01
72278;BMP280;61204;49.980;8.358;2022-07-23T01:41:31;100582.47;;;19.86
72278;BMP280;61204;49.980;8.358;2022-07-23T01:44:00;100600.69;;;19.91
72278;BMP280;61204;49.980;8.358;2022-07-23T01:46:26;100597.59;;;19.81
72278;BMP280;61204;49.980;8.358;2022-07-23T01:48:54;100584.06;;;19.72
72278;BMP280;61204;49.980;8.358;2022-07-23T01:51:20;100583.34;;;19.69
72278;BMP280;61204;49.980;8.358;2022-07-23T01:53:45;100579.09;;;19.68
72278;BMP280;61204;49.980;8.358;2022-07-23T01:56:11;100577.69;;;19.67
72278;BMP280;61204;49.980;8.358;2022-07-23T01:58:36;100577.78;;;19.69
72278;BMP280;61204;49.980;8.358;2022-07-23T02:01:02;100585.25;;;19.64
72278;BMP280;61204;49.980;8.358;2022-07-23T02:03:28;100573.94;;;19.58
72278;BMP280;61204;49.980;8.358;2022-07-23T02:05:53;100572.91;;;19.48
72278;BMP280;61204;49.980;8.358;2022-07-23T02:08:21;100604.28;;;19.50
72278;BMP280;61204;49.980;8.358;2022-07-23T02:10:47;100622.13;;;19.65
72278;BMP280;61204;49.980;8.358;2022-07-23T02:13:18;100602.25;;;19.53
72278;BMP280;61204;49.980;8.358;2022-07-23T02:15:44;100593.00;;;19.46
72278;BMP280;61204;49.980;8.358;2022-07-23T02:18:12;100590.09;;;19.42
72278;BMP280;61204;49.980;8.358;2022-07-23T02:20:41;100594.88;;;19.40
72278;BMP280;61204;49.980;8.358;2022-07-23T02:23:10;100602.66;;;19.43
72278;BMP280;61204;49.980;8.358;2022-07-23T02:25:40;100603.53;;;19.50
72278;BMP280;61204;49.980;8.358;2022-07-23T02:28:06;100618.59;;;19.43
72278;BMP280;61204;49.980;8.358;2022-07-23T02:30:35;100608.84;;;19.42
72278;BMP280;61204;49.980;8.358;2022-07-23T02:33:01;100609.34;;;19.36
72278;BMP280;61204;49.980;8.358;2022-07-23T02:35:26;100617.31;;;19.46
72278;BMP280;61204;49.980;8.358;2022-07-23T02:37:52;100611.03;;;19.45
72278;BMP280;61204;49.980;8.358;2022-07-23T02:40:20;100608.72;;;19.38
72278;BMP280;61204;49.980;8.358;2022-07-23T02:42:48;100603.78;;;19.36
72278;BMP280;61204;49.980;8.358;2022-07-23T02:45:13;100597.41;;;19.31
72278;BMP280;61204;49.980;8.358;2022-07-23T02:47:39;100601.34;;;19.24
72278;BMP280;61204;49.980;8.358;2022-07-23T02:50:06;100604.59;;;19.19
72278;BMP280;61204;49.980;8.358;2022-07-23T02:52:39;100602.63;;;19.21
72278;BMP280;61204;49.980;8.358;2022-07-23T02:55:06;100592.06;;;19.18
72278;BMP280;61204;49.980;8.358;2022-07-23T02:57:32;100582.22;;;19.15
72278;BMP280;61204;49.980;8.358;2022-07-23T02:59:57;100582.31;;;19.17
72278;BMP280;61204;49.980;8.358;2022-07-23T03:02:25;100583.00;;;19.17
72278;BMP280;61204;49.980;8.358;2022-07-23T03:04:51;100584.38;;;19.16
72278;BMP280;61204;49.980;8.358;2022-07-23T03:07:18;100595.47;;;19.16
72278;BMP280;61204;49.980;8.358;2022-07-23T03:09:43;100599.63;;;19.15
72278;BMP280;61204;49.980;8.358;2022-07-23T03:12:09;100603.88;;;19.18
72278;BMP280;61204;49.980;8.358;2022-07-23T03:14:34;100609.38;;;19.16
72278;BMP280;61204;49.980;8.358;2022-07-23T03:17:03;100602.41;;;19.15
72278;BMP280;61204;49.980;8.358;2022-07-23T03:19:30;100593.28;;;19.13
72278;BMP280;61204;49.980;8.358;2022-07-23T03:21:56;100599.56;;;19.13
72278;BMP280;61204;49.980;8.358;2022-07-23T03:24:22;100620.66;;;19.20
72278;BMP280;61204;49.980;8.358;2022-07-23T03:27:11;100617.91;;;19.22
72278;BMP280;61204;49.980;8.358;2022-07-23T03:29:36;100611.56;;;19.20
72278;BMP280;61204;49.980;8.358;2022-07-23T03:32:03;100626.97;;;19.23
72278;BMP280;61204;49.980;8.358;2022-07-23T03:34:29;100630.09;;;19.33
72278;BMP280;61204;49.980;8.358;2022-07-23T03:36:55;100630.88;;;19.35
72278;BMP280;61204;49.980;8.358;2022-07-23T03:39:20;100637.28;;;19.40
72278;BMP280;61204;49.980;8.358;2022-07-23T03:41:48;100650.06;;;19.47
72278;BMP280;61204;49.980;8.358;2022-07-23T03:44:14;100640.19;;;19.44
72278;BMP280;61204;49.980;8.358;2022-07-23T03:46:39;100633.84;;;19.42
72278;BMP280;61204;49.980;8.358;2022-07-23T03:49:07;100645.50;;;19.36
72278;BMP280;61204;49.980;8.358;2022-07-23T03:51:33;100645.44;;;19.34
72278;BMP280;61204;49.980;8.358;2022-07-23T03:53:59;100657.91;;;19.33
72278;BMP280;61204;49.980;8.358;2022-07-23T03:56:26;100653.63;;;19.30
72278;BMP280;61204;49.980;8.358;2022-07-23T03:58:52;100644.44;;;19.25
72278;BMP280;61204;49.980;8.358;2022-07-23T04:01:20;100643.06;;;19.26
72278;BMP280;61204;49.980;8.358;2022-07-23T04:03:50;100642.50;;;19.30
72278;BMP280;61204;49.980;8.358;2022-07-23T04:06:18;100629.31;;;19.30
72278;BMP280;61204;49.980;8.358;2022-07-23T04:08:44;100633.38;;;19.27
72278;BMP280;61204;49.980;8.358;2022-07-23T04:11:09;100648.06;;;19.30
72278;BMP280;61204;49.980;8.358;2022-07-23T04:13:35;100663.25;;;19.27
72278;BMP280;61204;49.980;8.358;2022-07-23T04:16:00;100670.81;;;19.24
72278;BMP280;61204;49.980;8.358;2022-07-23T04:18:26;100673.59;;;19.24
72278;BMP280;61204;49.980;8.358;2022-07-23T04:20:52;100679.28;;;19.28
72278;BMP280;61204;49.980;8.358;2022-07-23T04:23:18;100678.84;;;19.36
72278;BMP280;61204;49.980;8.358;2022-07-23T04:25:44;100676.34;;;19.44
72278;BMP280;61204;49.980;8.358;2022-07-23T04:28:09;100677.75;;;19.65
72278;BMP280;61204;49.980;8.358;2022-07-23T04:30:35;100700.59;;;19.83
72278;BMP280;61204;49.980;8.358;2022-07-23T04:33:03;100705.47;;;20.05
72278;BMP280;61204;49.980;8.358;2022-07-23T04:35:33;100710.25;;;20.02
72278;BMP280;61204;49.980;8.358;2022-07-23T04:38:03;100706.97;;;20.08
72278;BMP280;61204;49.980;8.358;2022-07-23T04:40:29;100712.84;;;20.18
72278;BMP280;61204;49.980;8.358;2022-07-23T04:42:56;100704.09;;;20.27
72278;BMP280;61204;49.980;8.358;2022-07-23T04:45:23;100713.97;;;20.33
72278;BMP280;61204;49.980;8.358;2022-07-23T04:47:51;100720.34;;;20.59
72278;BMP280;61204;49.980;8.358;2022-07-23T04:50:17;100725.22;;;20.58
72278;BMP280;61204;49.980;8.358;2022-07-23T04:52:49;100735.00;;;20.59
72278;BMP280;61204;49.980;8.358;2022-07-23T04:55:15;100742.59;;;20.57
72278;BMP280;61204;49.980;8.358;2022-07-23T04:57:41;100727.00;;;20.48
72278;BMP280;61204;49.980;8.358;2022-07-23T05:00:09;100715.78;;;20.46
72278;BMP280;61204;49.980;8.358;2022-07-23T05:02:36;100720.72;;;20.47
72278;BMP280;61204;49.980;8.358;2022-07-23T05:05:01;100727.31;;;20.36
72278;BMP280;61204;49.980;8.358;2022-07-23T05:07:27;100724.25;;;20.26
72278;BMP280;61204;49.980;8.358;2022-07-23T05:09:52;100726.16;;;20.21
72278;BMP280;61204;49.980;8.358;2022-07-23T05:12:18;100718.41;;;20.18
72278;BMP280;61204;49.980;8.358;2022-07-23T05:14:43;100712.78;;;20.16
72278;BMP280;61204;49.980;8.358;2022-07-23T05:17:12;100712.06;;;20.15
72278;BMP280;61204;49.980;8.358;2022-07-23T05:19:39;100729.59;;;20.20
72278;BMP280;61204;49.980;8.358;2022-07-23T05:22:05;100739.72;;;20.31
72278;BMP280;61204;49.980;8.358;2022-07-23T05:24:33;100744.22;;;20.42
72278;BMP280;61204;49.980;8.358;2022-07-23T05:27:01;100741.69;;;20.50
72278;BMP280;61204;49.980;8.358;2022-07-23T05:29:26;100733.34;;;20.50
72278;BMP280;61204;49.980;8.358;2022-07-23T05:31:56;100736.69;;;20.69
72278;BMP280;61204;49.980;8.358;2022-07-23T05:34:24;100734.50;;;20.65
72278;BMP280;61204;49.980;8.358;2022-07-23T05:36:50;100735.28;;;20.70
72278;BMP280;61204;49.980;8.358;2022-07-23T05:39:18;100737.09;;;20.83
72278;BMP280;61204;49.980;8.358;2022-07-23T05:41:43;100728.94;;;20.91
72278;BMP280;61204;49.980;8.358;2022-07-23T05:44:11;100739.34;;;20.88
72278;BMP280;61204;49.980;8.358;2022-07-23T05:46:39;100735.84;;;20.88
72278;BMP280;61204;49.980;8.358;2022-07-23T05:49:05;100744.16;;;20.86
72278;BMP280;61204;49.980;8.358;2022-07-23T05:51:40;100753.72;;;21.05
72278;BMP280;61204;49.980;8.358;2022-07-23T05:54:06;100759.81;;;21.49
72278;BMP280;61204;49.980;8.358;2022-07-23T05:56:31;100761.91;;;22.04
72278;BMP280;61204;49.980;8.358;2022-07-23T05:58:57;100761.88;;;22.66
72278;BMP280;61204;49.980;8.358;2022-07-23T06:01:22;100756.63;;;23.16
72278;BMP280;61204;49.980;8.358;2022-07-23T06:03:48;100765.16;;;23.65
72278;BMP280;61204;49.980;8.358;2022-07-23T06:06:16;100775.06;;;24.14
72278;BMP280;61204;49.980;8.358;2022-07-23T06:08:42;100765.59;;;24.37
72278;BMP280;61204;49.980;8.358;2022-07-23T06:11:08;100766.81;;;24.78
72278;BMP280;61204;49.980;8.358;2022-07-23T06:13:33;100768.84;;;25.36
72278;BMP280;61204;49.980;8.358;2022-07-23T06:15:59;100760.63;;;25.63
72278;BMP280;61204;49.980;8.358;2022-07-23T06:18:25;100764.31;;;25.88
72278;BMP280;61204;49.980;8.358;2022-07-23T06:20:50;100766.63;;;26.22
72278;BMP280;61204;49.980;8.358;2022-07-23T06:23:16;100769.63;;;26.62
72278;BMP280;61204;49.980;8.358;2022-07-23T06:25:44;100764.06;;;26.74
72278;BMP280;61204;49.980;8.358;2022-07-23T06:28:09;100760.63;;;27.31
72278;BMP280;61204;49.980;8.358;2022-07-23T06:30:37;100760.59;;;27.65
72278;BMP280;61204;49.980;8.358;2022-07-23T06:33:03;100759.91;;;27.73
72278;BMP280;61204;49.980;8.358;2022-07-23T06:35:31;100757.09;;;27.46
72278;BMP280;61204;49.980;8.358;2022-07-23T06:37:59;100755.00;;;27.16
72278;BMP280;61204;49.980;8.358;2022-07-23T06:40:27;100759.81;;;26.71
72278;BMP280;61204;49.980;8.358;2022-07-23T06:42:53;100764.56;;;26.26
72278;BMP280;61204;49.980;8.358;2022-07-23T06:45:18;100761.22;;;26.76
72278;BMP280;61204;49.980;8.358;2022-07-23T06:47:44;100764.16;;;27.27
72278;BMP280;61204;49.980;8.358;2022-07-23T06:50:15;100763.44;;;27.08
72278;BMP280;61204;49.980;8.358;2022-07-23T06:52:47;100769.00;;;26.86
72278;BMP280;61204;49.980;8.358;2022-07-23T06:55:12;100775.28;;;26.70
72278;BMP280;61204;49.980;8.358;2022-07-23T06:57:38;100768.91;;;26.62
72278;BMP280;61204;49.980;8.358;2022-07-23T07:00:04;100777.44;;;26.82
72278;BMP280;61204;49.980;8.358;2022-07-23T07:02:33;100785.16;;;26.79
72278;BMP280;61204;49.980;8.358;2022-07-23T07:04:59;100785.97;;;27.51
72278;BMP280;61204;49.980;8.358;2022-07-23T07:07:24;100788.72;;;27.98
72278;BMP280;61204;49.980;8.358;2022-07-23T07:09:54;100781.94;;;29.78
72278;BMP280;61204;49.980;8.358;2022-07-23T07:12:20;100784.72;;;30.93
72278;BMP280;61204;49.980;8.358;2022-07-23T07:14:48;100786.63;;;30.57
72278;BMP280;61204;49.980;8.358;2022-07-23T07:17:14;100796.41;;;30.66
72278;BMP280;61204;49.980;8.358;2022-07-23T07:19:40;100791.41;;;31.16
72278;BMP280;61204;49.980;8.358;2022-07-23T07:22:06;100795.75;;;30.09
72278;BMP280;61204;49.980;8.358;2022-07-23T07:24:32;100794.69;;;29.79
72278;BMP280;61204;49.980;8.358;2022-07-23T07:27:00;100800.91;;;30.98
72278;BMP280;61204;49.980;8.358;2022-07-23T07:29:25;100811.34;;;30.61
72278;BMP280;61204;49.980;8.358;2022-07-23T07:31:52;100816.78;;;32.00
72278;BMP280;61204;49.980;8.358;2022-07-23T07:34:17;100820.84;;;31.74
72278;BMP280;61204;49.980;8.358;2022-07-23T07:36:43;100812.31;;;32.75
72278;BMP280;61204;49.980;8.358;2022-07-23T07:39:09;100814.41;;;32.77
72278;BMP280;61204;49.980;8.358;2022-07-23T07:41:35;100812.09;;;32.85
72278;BMP280;61204;49.980;8.358;2022-07-23T07:44:01;100811.09;;;32.97
72278;BMP280;61204;49.980;8.358;2022-07-23T07:46:29;100824.94;;;33.65
72278;BMP280;61204;49.980;8.358;2022-07-23T07:49:07;100828.13;;;32.97
72278;BMP280;61204;49.980;8.358;2022-07-23T07:51:33;100832.09;;;33.37
72278;BMP280;61204;49.980;8.358;2022-07-23T07:53:59;100838.28;;;33.17
72278;BMP280;61204;49.980;8.358;2022-07-23T07:56:26;100848.03;;;33.53
72278;BMP280;61204;49.980;8.358;2022-07-23T07:58:52;100847.97;;;33.82
72278;BMP280;61204;49.980;8.358;2022-07-23T08:01:18;100847.69;;;32.16
72278;BMP280;61204;49.980;8.358;2022-07-23T08:03:45;100844.41;;;31.63
72278;BMP280;61204;49.980;8.358;2022-07-23T08:06:11;100853.47;;;32.10
72278;BMP280;61204;49.980;8.358;2022-07-23T08:08:39;100849.09;;;32.15
72278;BMP280;61204;49.980;8.358;2022-07-23T08:11:04;100848.56;;;33.59
72278;BMP280;61204;49.980;8.358;2022-07-23T08:13:30;100850.91;;;31.14
72278;BMP280;61204;49.980;8.358;2022-07-23T08:15:56;100856.47;;;31.20
72278;BMP280;61204;49.980;8.358;2022-07-23T08:18:21;100853.19;;;32.22
72278;BMP280;61204;49.980;8.358;2022-07-23T08:20:49;100847.44;;;31.92
72278;BMP280;61204;49.980;8.358;2022-07-23T08:23:15;100850.91;;;32.64
72278;BMP280;61204;49.980;8.358;2022-07-23T08:25:44;100850.34;;;32.25
72278;BMP280;61204;49.980;8.358;2022-07-23T08:28:15;100844.75;;;31.83
72278;BMP280;61204;49.980;8.358;2022-07-23T08:30:42;100843.13;;;33.49
72278;BMP280;61204;49.980;8.358;2022-07-23T08:33:16;100844.94;;;34.12
72278;BMP280;61204;49.980;8.358;2022-07-23T08:35:49;100844.06;;;34.41
72278;BMP280;61204;49.980;8.358;2022-07-23T08:38:19;100843.63;;;34.78
72278;BMP280;61204;49.980;8.358;2022-07-23T08:40:49;100834.66;;;34.46
72278;BMP280;61204;49.980;8.358;2022-07-23T08:43:21;100847.38;;;36.14
72278;BMP280;61204;49.980;8.358;2022-07-23T08:45:52;100846.13;;;35.71
72278;BMP280;61204;49.980;8.358;2022-07-23T08:48:30;100856.94;;;35.27
72278;BMP280;61204;49.980;8.358;2022-07-23T08:51:00;100852.50;;;34.68
72278;BMP280;61204;49.980;8.358;2022-07-23T08:53:29;100846.56;;;35.59
72278;BMP280;61204;49.980;8.358;2022-07-23T08:55:59;100850.84;;;37.04
72278;BMP280;61204;49.980;8.358;2022-07-23T08:58:28;100849.81;;;37.76
72278;BMP280;61204;49.980;8.358;2022-07-23T09:00:57;100843.47;;;38.20
72278;BMP280;61204;49.980;8.358;2022-07-23T09:03:26;100838.66;;;36.88
72278;BMP280;61204;49.980;8.358;2022-07-23T09:06:01;100842.91;;;37.86
72278;BMP280;61204;49.980;8.358;2022-07-23T09:08:42;100835.00;;;37.40
72278;BMP280;61204;49.980;8.358;2022-07-23T09:11:16;100838.50;;;38.03
72278;BMP280;61204;49.980;8.358;2022-07-23T09:13:49;100841.56;;;37.53
72278;BMP280;61204;49.980;8.358;2022-07-23T09:16:30;100840.09;;;37.54
72278;BMP280;61204;49.980;8.358;2022-07-23T09:19:04;100827.81;;;37.72
72278;BMP280;61204;49.980;8.358;2022-07-23T09:21:36;100829.47;;;35.59
72278;BMP280;61204;49.980;8.358;2022-07-23T09:24:07;100824.91;;;35.66
72278;BMP280;61204;49.980;8.358;2022-07-23T09:26:41;100826.00;;;37.00
72278;BMP280;61204;49.980;8.358;2022-07-23T09:29:19;100829.53;;;38.55
72278;BMP280;61204;49.980;8.358;2022-07-23T09:34:34;100831.94;;;39.33
72278;BMP280;61204;49.980;8.358;2022-07-23T09:37:12;100837.88;;;39.56
72278;BMP280;61204;49.980;8.358;2022-07-23T09:39:44;100834.81;;;40.11
72278;BMP280;61204;49.980;8.358;2022-07-23T09:44:49;100848.38;;;40.12
72278;BMP280;61204;49.980;8.358;2022-07-23T09:47:21;100837.06;;;40.59
72278;BMP280;61204;49.980;8.358;2022-07-23T09:50:08;100830.50;;;41.53
72278;BMP280;61204;49.980;8.358;2022-07-23T09:52:49;100834.53;;;40.89
72278;BMP280;61204;49.980;8.358;2022-07-23T09:55:18;100832.34;;;41.12
72278;BMP280;61204;49.980;8.358;2022-07-23T09:57:45;100837.22;;;42.05
72278;BMP280;61204;49.980;8.358;2022-07-23T10:00:22;100838.34;;;41.08
72278;BMP280;61204;49.980;8.358;2022-07-23T10:02:49;100833.88;;;40.76
72278;BMP280;61204;49.980;8.358;2022-07-23T10:05:17;100835.72;;;41.28
72278;BMP280;61204;49.980;8.358;2022-07-23T10:07:44;100832.66;;;41.87
72278;BMP280;61204;49.980;8.358;2022-07-23T10:10:13;100834.91;;;42.39
72278;BMP280;61204;49.980;8.358;2022-07-23T10:12:43;100834.31;;;41.94
72278;BMP280;61204;49.980;8.358;2022-07-23T10:15:16;100830.13;;;41.59
72278;BMP280;61204;49.980;8.358;2022-07-23T10:17:43;100832.03;;;36.23
72278;BMP280;61204;49.980;8.358;2022-07-23T10:20:13;100837.25;;;35.79
72278;BMP280;61204;49.980;8.358;2022-07-23T10:22:43;100834.47;;;37.98
72278;BMP280;61204;49.980;8.358;2022-07-23T10:31:35;100832.97;;;41.26
72278;BMP280;61204;49.980;8.358;2022-07-23T10:34:29;100829.78;;;41.97
72278;BMP280;61204;49.980;8.358;2022-07-23T10:37:15;100822.06;;;44.17
72278;BMP280;61204;49.980;8.358;2022-07-23T10:40:10;100832.88;;;43.00
72278;BMP280;61204;49.980;8.358;2022-07-23T10:42:37;100836.13;;;43.15
72278;BMP280;61204;49.980;8.358;2022-07-23T10:45:32;100843.25;;;39.50
72278;BMP280;61204;49.980;8.358;2022-07-23T10:48:19;100832.97;;;37.53
72278;BMP280;61204;49.980;8.358;2022-07-23T10:51:09;100836.50;;;37.06
72278;BMP280;61204;49.980;8.358;2022-07-23T10:59:22;100837.91;;;41.27
72278;BMP280;61204;49.980;8.358;2022-07-23T11:01:49;100832.31;;;42.46
72278;BMP280;61204;49.980;8.358;2022-07-23T11:04:15;100829.47;;;41.12
72278;BMP280;61204;49.980;8.358;2022-07-23T11:09:41;100830.16;;;40.90
72278;BMP280;61204;49.980;8.358;2022-07-23T11:15:14;100831.03;;;40.27
72278;BMP280;61204;49.980;8.358;2022-07-23T11:20:29;100832.31;;;40.66
72278;BMP280;61204;49.980;8.358;2022-07-23T11:22:57;100826.50;;;41.93
72278;BMP280;61204;49.980;8.358;2022-07-23T11:27:53;100818.81;;;42.74
72278;BMP280;61204;49.980;8.358;2022-07-23T11:35:35;100819.44;;;39.26
72278;BMP280;61204;49.980;8.358;2022-07-23T11:38:06;100819.03;;;40.84
72278;BMP280;61204;49.980;8.358;2022-07-23T11:40:39;100821.28;;;41.17
72278;BMP280;61204;49.980;8.358;2022-07-23T11:43:08;100812.00;;;42.27
72278;BMP280;61204;49.980;8.358;2022-07-23T11:45:40;100814.94;;;43.78
72278;BMP280;61204;49.980;8.358;2022-07-23T11:48:18;100806.84;;;43.51
72278;BMP280;61204;49.980;8.358;2022-07-23T11:50:51;100813.88;;;41.98
72278;BMP280;61204;49.980;8.358;2022-07-23T11:53:25;100805.44;;;40.59
72278;BMP280;61204;49.980;8.358;2022-07-23T11:56:10;100800.56;;;41.38
72278;BMP280;61204;49.980;8.358;2022-07-23T11:58:39;100801.75;;;41.64
72278;BMP280;61204;49.980;8.358;2022-07-23T12:01:21;100803.47;;;40.07
72278;BMP280;61204;49.980;8.358;2022-07-23T12:03:52;100796.75;;;38.08
72278;BMP280;61204;49.980;8.358;2022-07-23T12:06:18;100797.38;;;38.82
72278;BMP280;61204;49.980;8.358;2022-07-23T12:08:50;100806.28;;;39.43
72278;BMP280;61204;49.980;8.358;2022-07-23T12:11:16;100796.50;;;38.98
72278;BMP280;61204;49.980;8.358;2022-07-23T12:13:42;100796.75;;;37.48
72278;BMP280;61204;49.980;8.358;2022-07-23T12:16:08;100796.88;;;36.62
72278;BMP280;61204;49.980;8.358;2022-07-23T12:18:34;100801.38;;;37.87
72278;BMP280;61204;49.980;8.358;2022-07-23T12:21:05;100790.59;;;38.88
72278;BMP280;61204;49.980;8.358;2022-07-23T12:23:32;100806.91;;;40.22
72278;BMP280;61204;49.980;8.358;2022-07-23T12:26:01;100792.41;;;40.72
72278;BMP280;61204;49.980;8.358;2022-07-23T12:28:30;100788.13;;;41.41
72278;BMP280;61204;49.980;8.358;2022-07-23T12:30:58;100793.22;;;40.94
72278;BMP280;61204;49.980;8.358;2022-07-23T12:33:28;100794.66;;;40.47
72278;BMP280;61204;49.980;8.358;2022-07-23T12:36:04;100794.16;;;40.06
72278;BMP280;61204;49.980;8.358;2022-07-23T12:38:38;100790.97;;;39.74
72278;BMP280;61204;49.980;8.358;2022-07-23T12:41:09;100793.22;;;39.59
72278;BMP280;61204;49.980;8.358;2022-07-23T12:43:40;100790.94;;;40.12
72278;BMP280;61204;49.980;8.358;2022-07-23T12:46:17;100797.13;;;39.01
72278;BMP280;61204;49.980;8.358;2022-07-23T12:51:18;100793.00;;;38.12
72278;BMP280;61204;49.980;8.358;2022-07-23T12:53:52;100796.19;;;38.06
72278;BMP280;61204;49.980;8.358;2022-07-23T12:56:44;100799.34;;;37.06
72278;BMP280;61204;49.980;8.358;2022-07-23T12:59:12;100795.09;;;36.71
72278;BMP280;61204;49.980;8.358;2022-07-23T13:01:54;100796.81;;;37.31
72278;BMP280;61204;49.980;8.358;2022-07-23T13:04:25;100790.63;;;37.87
72278;BMP280;61204;49.980;8.358;2022-07-23T13:06:53;100807.22;;;37.05
72278;BMP280;61204;49.980;8.358;2022-07-23T13:09:28;100803.94;;;37.47
72278;BMP280;61204;49.980;8.358;2022-07-23T13:11:57;100797.25;;;35.81
72278;BMP280;61204;49.980;8.358;2022-07-23T13:14:25;100800.63;;;36.04
72278;BMP280;61204;49.980;8.358;2022-07-23T13:16:52;100800.88;;;35.80
72278;BMP280;61204;49.980;8.358;2022-07-23T13:19:22;100805.75;;;36.02
72278;BMP280;61204;49.980;8.358;2022-07-23T13:21:48;100802.66;;;35.70
72278;BMP280;61204;49.980;8.358;2022-07-23T13:24:17;100804.72;;;36.09
72278;BMP280;61204;49.980;8.358;2022-07-23T13:26:45;100804.97;;;36.03
72278;BMP280;61204;49.980;8.358;2022-07-23T13:29:15;100800.47;;;36.27
72278;BMP280;61204;49.980;8.358;2022-07-23T13:31:41;100789.69;;;36.46
72278;BMP280;61204;49.980;8.358;2022-07-23T13:34:06;100798.81;;;36.32
72278;BMP280;61204;49.980;8.358;2022-07-23T13:36:32;100800.81;;;38.28
72278;BMP280;61204;49.980;8.358;2022-07-23T13:38:58;100791.84;;;38.07
72278;BMP280;61204;49.980;8.358;2022-07-23T13:41:23;100785.09;;;38.12
72278;BMP280;61204;49.980;8.358;2022-07-23T13:43:49;100789.34;;;37.53
72278;BMP280;61204;49.980;8.358;2022-07-23T13:46:15;100790.09;;;37.37
72278;BMP280;61204;49.980;8.358;2022-07-23T13:48:40;100792.47;;;37.63
72278;BMP280;61204;49.980;8.358;2022-07-23T13:51:07;100788.81;;;39.22
72278;BMP280;61204;49.980;8.358;2022-07-23T13:53:32;100785.91;;;39.62
72278;BMP280;61204;49.980;8.358;2022-07-23T13:55:58;100793.22;;;39.59
72278;BMP280;61204;49.980;8.358;2022-07-23T13:58:24;100781.81;;;40.46
72278;BMP280;61204;49.980;8.358;2022-07-23T14:00:52;100793.88;;;38.52
72278;BMP280;61204;49.980;8.358;2022-07-23T14:03:20;100777.91;;;37.84
72278;BMP280;61204;49.980;8.358;2022-07-23T14:05:51;100777.78;;;38.01
72278;BMP280;61204;49.980;8.358;2022-07-23T14:08:18;100782.81;;;38.86
72278;BMP280;61204;49.980;8.358;2022-07-23T14:10:44;100783.66;;;39.25
72278;BMP280;61204;49.980;8.358;2022-07-23T14:13:10;100790.59;;;38.61
72278;BMP280;61204;49.980;8.358;2022-07-23T14:15:35;100778.53;;;37.55
72278;BMP280;61204;49.980;8.358;2022-07-23T14:18:03;100774.16;;;37.42
72278;BMP280;61204;49.980;8.358;2022-07-23T14:20:29;100781.34;;;38.01
72278;BMP280;61204;49.980;8.358;2022-07-23T14:22:57;100780.44;;;37.90
72278;BMP280;61204;49.980;8.358;2022-07-23T14:25:25;100769.69;;;38.05
72278;BMP280;61204;49.980;8.358;2022-07-23T14:27:51;100779.28;;;37.22
72278;BMP280;61204;49.980;8.358;2022-07-23T14:30:18;100777.22;;;37.52
72278;BMP280;61204;49.980;8.358;2022-07-23T14:32:44;100773.91;;;37.62
72278;BMP280;61204;49.980;8.358;2022-07-23T14:35:09;100773.56;;;38.14
72278;BMP280;61204;49.980;8.358;2022-07-23T14:37:35;100767.78;;;38.86
72278;BMP280;61204;49.980;8.358;2022-07-23T14:40:01;100770.75;;;38.84
72278;BMP280;61204;49.980;8.358;2022-07-23T14:42:28;100772.09;;;36.75